Earlville, IL (60518)

12:22 PM CDT on July 25, 2016 (GMT -0500)
Farm 34 | | Change Station
Active Advisory: Flood Advisory Active Notice: Public Information Statement

Elev 699 ft 41.59 °N, 88.85 °W | Updated 2 minutes ago

Scattered Clouds
Scattered Clouds
82.0 °F
Feels Like 86 °F
N
7.0
Wind Variable Wind from WNW
Gusts 8.0 mph

Today
High -- | Low -- °F
--% Chance of Precip.
Yesterday
High -- | Low -- °F
Precip. -- in
Pressure 30.05 in
Visibility 10.0 miles
Clouds Scattered Clouds 3300 ft
Heat Index 86 °F
Dew Point 70 °F
Humidity 66%
Rainfall 0.00 in
Snow Depth Not available.
5:43 AM 8:19 PM
Waning Gibbous, 64% visible
METAR KVYS 251715Z AUTO 00000KT 10SM SCT033 28/20 A3005 RMK AO2 T02780196
Pressure 30.05 in
Visibility 10.0 miles
Clouds Scattered Clouds 3300 ft
Heat Index 86 °F
Dew Point 70 °F
Humidity 66%
Rainfall 0.00 in
Snow Depth Not available.
5:43 AM 8:19 PM
Waning Gibbous, 64% visible
METAR KVYS 251715Z AUTO 00000KT 10SM SCT033 28/20 A3005 RMK AO2 T02780196

10-Day Weather Forecast

Almanac

Astronomy

Jul. 25, 2016 Rise Set
Actual Time
Civil Twilight
Nautical Twilight
Astronomical Twilight
Moon
Length of Visible Light
Length of Day
Tomorrow will be .
, % of the Moon is Illuminated

Today's Extremes

State Highs State Lows

Community

WunderPhotos

Upload Photos

1,927,363 photos uploaded!

WunderBlog® & News

Nearby

Air Quality

  Air Quality AQ Index Pollutant
Not available.

Snow Depth

Station Depth Elevation

Earthquake Activity

City Distance Mag. Time & Date
Minimum magnitude displayed is 2.5.

Coastal Water Temperatures

Place Temperature

Stations

Nearby Weather Stations

Station Location Temp. Windchill Dew Point Humidity Wind Precip. Elev Updated Type
                   

Watches & Warnings

Flood Advisory
Issued: 9:51 PM CDT Jul. 24, 2016 – National Weather Service

The National Weather Service in Chicago has issued a
* Flood Advisory for
the Illinois River at Ottawa.
* Until Monday afternoon.
* At 930 PM Sunday the stage was 461.1 feet.
* Action stage is 461.0 feet.
* Flood stage is 463.0 feet.
* Forecast... the river will rise to near 461.2 feet by early Monday.



Lat... Lon 4135 8868 4137 8896 4128 8897 4127 8867